Accueil
METAR-TAF:

METAR-TAF

Aéroports :

Vamdrup

Kolding, Danemark

latitude: 55-26N, longitude: 009-20E, altitude: 44 m

Observation

Le bulletin a été fait il y a 37 minutes, à 19:50 UTC
Vent 8 kt de ouest
Température 12°C
Humidité 82%
Pression 1023 hPa

METAR: EKVD 111950Z AUTO 27008KT //// ///////// 12/09 Q1023

Heure: 22:27 (20:27 UTC)

Prévision

Le bulletin a été fait il y a 9 heures et 33 minutes, à 10:54 UTC
Prévision valable du 11 à 09 UTC au 11 à 15 UTC
Vent 15 kt de ouest
Visibilité 10 km ou plus
Nuages épars à une hauteur de 3000 ft
Temporairement
du 11 à 10 UTC au 11 à 15 UTC
Nuages épars à une hauteur de 3000 ft, Cumulonimbus.
averses de pluie

TAF: EKVD 111054Z 1109/1115 28015KT 9999 SCT030 TEMPO 1110/1115 SHRA SCT030CB

Observations et prévisions météorologiques de plus de 4000 aéroports (messages METAR et TAF).

Les stations disponibles sont représentées par des disques jaunes et rouges sur la carte.

Passer la souris dessus pour voir le nom de la station.

Cliquer dessus pour voir les observations et prévisions météorologiques.

Pour changer de carte: cliquez sur les boutons verts avec une croix noire pour zoomer, sur le bouton vert avec un tiret pour effectuer un zoom arrière, ou sur les flèches vertes pour les cartes adjacentes.


METAR-TAF: